LTBULBBG

Guest
Details From LTBU - CORLU
To LBBG - Burgas
Flight Number -
Tags generated
Created
Modified
Stats Distance 88 nm / 163 km
Max Altitude 0 ft / 0 m
Waypoints 3
Social Downloads 0
Likes 0
Share

Download

Looking for another format? Having issues loading an existing format? Contact us
Advertisement - Login to hide

Notes

Basic altitude profile: - Ascent Rate: 2500ft/min - Ascent Speed: 250kts - Cruise Altitude: 35000ft - Cruise Speed: 420kts - Descent Rate: 1500ft/min - Descent Speed: 250kts Options: - Use NATs: yes - Use PACOTS: yes - Use low airways: yes - Use high airways: yes

Route

LTBU BGS LBBG

ID Type Via Altitude (ft/m) Position (lat/lon) Dist (leg/tot) Name
O LTBU APT - 0 / 0 41.13825 / 27.91894 - / 0 nm CORLU
BGS VOR - 0 / 0 42.57106 / 27.51986 87 / 87 nm BURGAS VOR-DME
O LBBG APT - 0 / 0 42.57013 / 27.51524 0 / 88 nm Burgas

Altitude Profile

Advertisement - Login to hide

LTBU

Details ICAO LTBU (TEQ)
Name CORLU
Region Turkey
Timezone Europe/Istanbul (UTC+3.0)
Stats Elevation 574 ft / 175 m (AMSL)
Location 41.138300° 27.918900°
Runways 1
Magnetic Variation 5.592° E

METAR

LTBU 272050Z 34005KT 9999 SCT030 BKN100 12/11 Q1018

Decode

TAF

TAF LTBU 271640Z 2718/2818 33007KT 9999 SCT035 BKN100 PROB30 TEMPO 2723/2803 4000 BR SCT012 BKN030 TEMPO 2809/2812 4000 -TSRA FEW020CB BKN030 BECMG 2815/2818 CAVOK

Decode

Departure Runways

ID Width Length Bearing (true/mag) Surface Threshold Overrun Markings Lighting
05 148 ft / 45 m 9,899 ft / 3,017 m 49.36° / 43.76° CONCRETE 0 ft / 0 m 458 ft / 140 m PREC-APP EDGE THRESHOLD SALS
23 148 ft / 45 m 9,899 ft / 3,017 m 229.37° / 223.78° CONCRETE 0 ft / 0 m 495 ft / 151 m APP EDGE THRESHOLD

LBBG

Details ICAO LBBG (BOJ)
Name Burgas
Region Bulgaria
Timezone Europe/Sofia (UTC+3.0)
Stats Elevation 134 ft / 41 m (AMSL)
Location 42.570100° 27.515300°
Runways 1
Magnetic Variation 5.755° E

METAR

LBBG 272100Z 27005KT 9999 FEW018 SCT044 13/12 Q1018 NOSIG

Decode

TAF

TAF LBBG 271700Z 2718/2818 34012KT 9999 SCT025 BKN045 PROB40 TEMPO 2719/2801 5000 SHRA FEW015 SCT030CB OVC045 TEMPO 2809/2816 VRB18KT 4000 TSRA SCT025CB BKN040

Decode

Destination Runways

ID Width Length Bearing (true/mag) Surface Threshold Overrun Markings Lighting
04 148 ft / 45 m 10,509 ft / 3,203 m 44.26° / 38.51° CONCRETE 0 ft / 0 m 0 ft / 0 m PREC-APP CENTERLINE EDGE THRESHOLD ALSF-I
22 148 ft / 45 m 10,509 ft / 3,203 m 224.28° / 218.52° CONCRETE 0 ft / 0 m 0 ft / 0 m PREC-APP CENTERLINE EDGE THRESHOLD ALSF-II TDZ

Approach Navaids

Runway Type Ident Frequency Range Bearing (true/mag) Slope Elevation
22 GS IBG 110.30 MHz 10 nm / 19 km 224.27° / 218.52 ° 3.00° 134 ft / 41 m (AMSL)
22 MM MM - - 224.28° / 218.53 ° - 135 ft / 41 m (AMSL)
22 OM OM - - 224.28° / 218.53 ° - 135 ft / 41 m (AMSL)
22 LOC-ILS IBG 110.30 MHz 18 nm / 33 km 224.27° / 218.52 ° - 134 ft / 41 m (AMSL)

Popular Alternatives